Time;durP1;ratioP1;P1;durP2;ratioP2;P2;SDS_P1;SDS_P2;PMS_P1;PMS_P2;Temp;Humidity;BMP_temperature;BMP_pressure;BME280_temperature;BME280_humidity;BME280_pressure;Samples;Min_cycle;Max_cycle;Signal;HPM_P1;HPM_P2
2022/07/28 17:36:18;;;;;;;;;;;31.00;42.70;;;;;;5131868;27;19912;-75
2022/07/28 17:38:43;;;;;;;;;;;30.70;42.70;;;;;;5130603;28;20002;-76
2022/07/28 17:41:09;;;;;;;;;;;30.60;43.60;;;;;;5132246;28;20034;-77
2022/07/28 17:43:36;;;;;;;;;;;30.40;43.40;;;;;;5131578;28;19908;-78
2022/07/28 17:46:05;;;;;;;;;;;30.30;43.20;;;;;;5130263;28;20333;-75
2022/07/28 17:48:30;;;;;;;;;;;30.10;43.30;;;;;;5129606;28;19976;-76
2022/07/28 17:50:56;;;;;;;;;;;30.00;44.10;;;;;;5128335;28;20358;-76
2022/07/28 17:53:23;;;;;;;;;;;29.90;43.60;;;;;;5128796;28;19907;-75
2022/07/28 17:55:49;;;;;;;;;;;29.80;43.70;;;;;;5128472;28;19915;-81
2022/07/28 17:58:21;;;;;;;;;;;29.70;44.00;;;;;;5129207;28;20327;-78
2022/07/28 18:00:49;;;;;;;;;;;29.60;44.20;;;;;;5129836;27;19907;-73
2022/07/28 18:03:15;;;;;;;;;;;29.50;44.20;;;;;;5129305;27;20003;-72
2022/07/28 18:05:41;;;;;;;;;;;29.40;44.50;;;;;;5130384;28;19908;-76
2022/07/28 18:08:08;;;;;;;;;;;29.40;44.90;;;;;;5128477;28;19923;-70
2022/07/28 18:10:34;;;;;;;;;;;29.30;45.10;;;;;;5128880;28;20372;-69
2022/07/28 18:12:59;;;;;;;;;;;29.30;45.30;;;;;;5129693;28;20020;-72
2022/07/28 18:15:26;;;;;;;;;;;29.20;45.30;;;;;;5130565;28;20011;-72
2022/07/28 18:17:53;;;;;;;;;;;29.10;45.10;;;;;;5131084;28;19908;-72
2022/07/28 18:20:19;;;;;;;;;;;29.00;45.30;;;;;;5130516;28;20361;-71
2022/07/28 18:22:46;;;;;;;;;;;29.00;45.60;;;;;;5129719;28;20387;-74
2022/07/28 18:25:12;;;;;;;;;;;28.90;45.70;;;;;;5129791;27;19908;-72
2022/07/28 18:27:37;;;;;;;;;;;28.60;45.80;;;;;;5129564;28;20258;-73
2022/07/28 18:30:03;;;;;;;;;;;28.80;46.10;;;;;;5129966;28;19907;-75
2022/07/28 18:32:28;;;;;;;;;;;28.80;46.10;;;;;;5129695;28;19912;-72
2022/07/28 18:34:54;;;;;;;;;;;28.80;46.00;;;;;;5129119;28;19934;-72
2022/07/28 18:37:20;;;;;;;;;;;28.70;46.20;;;;;;5129417;27;19930;-73
2022/07/28 18:39:45;;;;;;;;;;;28.60;46.40;;;;;;5128936;28;19919;-73
2022/07/28 18:42:11;;;;;;;;;;;28.60;46.30;;;;;;5128154;28;19952;-73
2022/07/28 18:44:36;;;;;;;;;;;28.60;46.40;;;;;;5127464;28;19907;-72
2022/07/28 18:47:02;;;;;;;;;;;28.50;46.60;;;;;;5118264;27;20362;-73
2022/07/28 18:49:28;;;;;;;;;;;28.50;46.60;;;;;;5115831;28;19947;-73
2022/07/28 18:51:53;;;;;;;;;;;28.50;46.80;;;;;;5114256;28;19919;-79
2022/07/28 18:54:19;;;;;;;;;;;28.40;46.90;;;;;;5115532;28;19971;-78
2022/07/28 18:56:45;;;;;;;;;;;28.40;47.10;;;;;;5114034;28;19912;-78
2022/07/28 18:59:11;;;;;;;;;;;28.30;47.00;;;;;;5115522;28;19908;-81
2022/07/28 19:01:36;;;;;;;;;;;28.30;47.00;;;;;;5114955;28;19957;-80
2022/07/28 19:04:02;;;;;;;;;;;28.30;47.20;;;;;;5115818;28;19908;-72
2022/07/28 19:06:28;;;;;;;;;;;28.30;47.20;;;;;;5115479;28;19907;-74
2022/07/28 19:08:54;;;;;;;;;;;28.30;47.20;;;;;;5114128;28;19998;-76
2022/07/28 19:11:20;;;;;;;;;;;28.20;47.20;;;;;;5115073;28;19941;-74
2022/07/28 19:13:45;;;;;;;;;;;28.20;47.30;;;;;;5115631;28;19908;-78
2022/07/28 19:16:11;;;;;;;;;;;28.10;47.40;;;;;;5114285;28;19919;-76
2022/07/28 19:18:37;;;;;;;;;;;28.10;47.30;;;;;;5114417;28;19912;-73
2022/07/28 19:21:02;;;;;;;;;;;28.00;47.40;;;;;;5114236;28;19916;-76
2022/07/28 19:23:29;;;;;;;;;;;28.00;47.60;;;;;;5115017;28;20289;-72
2022/07/28 19:25:55;;;;;;;;;;;28.00;47.80;;;;;;5114659;28;19931;-75
2022/07/28 19:28:21;;;;;;;;;;;28.00;47.90;;;;;;5115266;28;20358;-74
2022/07/28 19:30:48;;;;;;;;;;;27.90;47.60;;;;;;5114388;28;19915;-74
2022/07/28 19:33:16;;;;;;;;;;;27.90;47.70;;;;;;5114897;28;19918;-73
2022/07/28 19:35:42;;;;;;;;;;;27.80;47.60;;;;;;5112894;28;20400;-74
2022/07/28 19:38:08;;;;;;;;;;;27.80;47.80;;;;;;5113356;28;19908;-75
2022/07/28 19:40:34;;;;;;;;;;;27.70;47.80;;;;;;5114563;28;19920;-76
2022/07/28 19:43:00;;;;;;;;;;;27.70;47.90;;;;;;5111717;28;19916;-76
2022/07/28 19:45:25;;;;;;;;;;;27.60;47.90;;;;;;5113101;28;21318;-76
2022/07/28 19:47:53;;;;;;;;;;;27.60;48.00;;;;;;5112048;28;20002;-75
2022/07/28 19:50:19;;;;;;;;;;;27.50;48.10;;;;;;5114194;28;19908;-76
2022/07/28 19:52:44;;;;;;;;;;;27.50;48.10;;;;;;5115392;28;19907;-76
2022/07/28 19:55:10;;;;;;;;;;;27.40;48.30;;;;;;5113647;27;20019;-77
2022/07/28 19:57:35;;;;;;;;;;;27.30;48.20;;;;;;5112940;28;19908;-77
2022/07/28 20:00:01;;;;;;;;;;;27.20;48.30;;;;;;5113852;28;19914;-79
2022/07/28 20:02:27;;;;;;;;;;;27.10;48.50;;;;;;5113878;28;20359;-78
2022/07/28 20:04:53;;;;;;;;;;;27.00;48.50;;;;;;5115086;28;19907;-77
2022/07/28 20:07:18;;;;;;;;;;;27.00;48.80;;;;;;5115191;28;19919;-77
2022/07/28 20:09:44;;;;;;;;;;;26.90;48.90;;;;;;5113647;28;20003;-79
2022/07/28 20:12:10;;;;;;;;;;;26.80;49.00;;;;;;5114831;28;19965;-74
2022/07/28 20:14:35;;;;;;;;;;;26.90;49.20;;;;;;5114711;28;20018;-76
2022/07/28 20:17:01;;;;;;;;;;;26.90;49.20;;;;;;5113672;28;19943;-74
2022/07/28 20:19:27;;;;;;;;;;;26.90;49.10;;;;;;5113656;28;19907;-76
2022/07/28 20:21:52;;;;;;;;;;;26.90;49.10;;;;;;5096382;28;19953;-78
2022/07/28 20:24:18;;;;;;;;;;;26.90;49.20;;;;;;5114749;28;19907;-74
2022/07/28 20:26:44;;;;;;;;;;;26.90;49.20;;;;;;5114298;28;19967;-75
2022/07/28 20:29:10;;;;;;;;;;;26.90;49.20;;;;;;5113475;28;19912;-74
2022/07/28 20:31:36;;;;;;;;;;;26.90;49.20;;;;;;5114450;28;19941;-73
2022/07/28 20:34:05;;;;;;;;;;;26.90;49.30;;;;;;5114390;28;19908;-74
2022/07/28 20:36:34;;;;;;;;;;;26.80;49.30;;;;;;5114433;28;19954;-74
2022/07/28 20:39:00;;;;;;;;;;;26.80;49.50;;;;;;5112378;28;19998;-75
2022/07/28 20:41:25;;;;;;;;;;;26.80;49.30;;;;;;5114387;28;19943;-75
2022/07/28 20:43:51;;;;;;;;;;;26.80;49.50;;;;;;5114314;28;19907;-75
2022/07/28 20:46:21;;;;;;;;;;;26.80;49.50;;;;;;5112753;28;19912;-76
2022/07/28 20:48:47;;;;;;;;;;;26.80;49.60;;;;;;5114587;28;19977;-74
2022/07/28 20:51:12;;;;;;;;;;;26.70;49.60;;;;;;5114103;28;19908;-77
2022/07/28 20:53:38;;;;;;;;;;;26.70;49.70;;;;;;5113790;28;19908;-76
2022/07/28 20:56:03;;;;;;;;;;;26.70;49.90;;;;;;5114269;28;20337;-75
2022/07/28 20:58:32;;;;;;;;;;;26.70;49.90;;;;;;5114413;28;20374;-74
2022/07/28 21:00:58;;;;;;;;;;;26.80;50.10;;;;;;5114679;28;19908;-78
2022/07/28 21:03:24;;;;;;;;;;;26.70;50.10;;;;;;5113189;28;19908;-74
2022/07/28 21:05:49;;;;;;;;;;;26.70;50.10;;;;;;5114010;28;19922;-77
2022/07/28 21:08:15;;;;;;;;;;;26.70;50.10;;;;;;5114154;28;19919;-78
2022/07/28 21:10:40;;;;;;;;;;;26.70;50.20;;;;;;5112450;28;20377;-77
2022/07/28 21:13:06;;;;;;;;;;;26.70;50.20;;;;;;5112842;28;19912;-76
2022/07/28 21:15:31;;;;;;;;;;;26.60;50.30;;;;;;5113750;28;19912;-79
2022/07/28 21:17:57;;;;;;;;;;;26.60;50.50;;;;;;5114070;28;19911;-78
2022/07/28 21:20:23;;;;;;;;;;;26.70;50.40;;;;;;5113987;28;19908;-78
2022/07/28 21:22:49;;;;;;;;;;;26.60;50.80;;;;;;5112589;28;19919;-79
2022/07/28 21:25:15;;;;;;;;;;;26.60;50.80;;;;;;5112676;28;19933;-78
2022/07/28 21:30:24;;;;;;;;;;;26.50;50.80;;;;;;5113419;28;19915;-75
2022/07/28 21:32:50;;;;;;;;;;;26.40;51.00;;;;;;5113537;28;19911;-77
2022/07/28 21:35:15;;;;;;;;;;;26.30;51.10;;;;;;5113865;28;19924;-78
2022/07/28 21:37:41;;;;;;;;;;;26.30;51.50;;;;;;5112861;28;19908;-77
2022/07/28 21:40:07;;;;;;;;;;;26.20;51.50;;;;;;5114274;28;19958;-77
2022/07/28 21:42:32;;;;;;;;;;;26.20;51.40;;;;;;5114720;28;19911;-76
2022/07/28 21:44:58;;;;;;;;;;;26.10;51.60;;;;;;5111498;28;19918;-76
2022/07/28 21:47:23;;;;;;;;;;;26.10;52.00;;;;;;5112791;28;19969;-76
2022/07/28 21:49:49;;;;;;;;;;;26.10;51.50;;;;;;5113008;28;19912;-75
2022/07/28 21:52:14;;;;;;;;;;;26.10;51.80;;;;;;5112929;28;19915;-76
2022/07/28 21:54:40;;;;;;;;;;;26.10;51.50;;;;;;5113356;28;19923;-75
2022/07/28 21:57:09;;;;;;;;;;;26.10;51.70;;;;;;5113547;28;19958;-77
2022/07/28 21:59:35;;;;;;;;;;;26.10;51.80;;;;;;5112258;28;19908;-76
2022/07/28 22:02:00;;;;;;;;;;;26.10;51.80;;;;;;5114519;28;19930;-77
2022/07/28 22:04:26;;;;;;;;;;;26.10;51.80;;;;;;5114322;28;19908;-77
2022/07/28 22:06:52;;;;;;;;;;;26.10;51.80;;;;;;5114316;28;20362;-77
2022/07/28 22:09:17;;;;;;;;;;;26.10;51.80;;;;;;5114451;28;19961;-77
2022/07/28 22:11:43;;;;;;;;;;;26.10;52.20;;;;;;5114093;28;19930;-76
2022/07/28 22:14:08;;;;;;;;;;;26.00;51.80;;;;;;5114357;28;19943;-77
2022/07/28 22:16:34;;;;;;;;;;;26.00;52.00;;;;;;5113930;28;19930;-76
2022/07/28 22:18:59;;;;;;;;;;;26.00;52.10;;;;;;5113766;28;20281;-76
2022/07/28 22:21:25;;;;;;;;;;;25.90;52.00;;;;;;5115127;28;19912;-77
2022/07/28 22:23:50;;;;;;;;;;;25.90;52.00;;;;;;5117893;28;19908;-77
2022/07/28 22:26:16;;;;;;;;;;;25.90;52.20;;;;;;5117686;28;20370;-77
2022/07/28 22:28:41;;;;;;;;;;;25.90;52.40;;;;;;5117043;28;20365;-76
2022/07/28 22:31:08;;;;;;;;;;;25.90;52.50;;;;;;5117595;28;20342;-77
2022/07/28 22:33:34;;;;;;;;;;;25.80;52.50;;;;;;5116428;28;20004;-76
2022/07/28 22:35:59;;;;;;;;;;;25.80;52.60;;;;;;5117478;28;20396;-77
2022/07/28 22:38:25;;;;;;;;;;;25.80;52.70;;;;;;5118139;28;19954;-77
2022/07/28 22:40:51;;;;;;;;;;;25.80;52.70;;;;;;5117910;28;20465;-76
2022/07/28 22:43:16;;;;;;;;;;;25.70;52.80;;;;;;5117619;28;20281;-76
2022/07/28 22:45:42;;;;;;;;;;;25.70;53.00;;;;;;5117537;27;19960;-77
2022/07/28 22:48:08;;;;;;;;;;;25.60;53.00;;;;;;5117146;28;19990;-76
2022/07/28 22:50:34;;;;;;;;;;;25.60;52.80;;;;;;5099137;28;19962;-76
2022/07/28 22:53:00;;;;;;;;;;;25.60;52.80;;;;;;5116160;28;19911;-76
2022/07/28 22:55:25;;;;;;;;;;;25.50;53.00;;;;;;5117274;28;19912;-77
2022/07/28 22:57:51;;;;;;;;;;;25.50;53.10;;;;;;5117446;28;19957;-76
2022/07/28 23:00:16;;;;;;;;;;;25.50;53.10;;;;;;5115135;28;20281;-77
2022/07/28 23:02:42;;;;;;;;;;;25.50;52.70;;;;;;5116905;28;19915;-76
2022/07/28 23:05:08;;;;;;;;;;;25.50;52.90;;;;;;5117138;28;20030;-76
2022/07/28 23:07:33;;;;;;;;;;;25.50;53.30;;;;;;5117125;28;19907;-75
2022/07/28 23:09:59;;;;;;;;;;;25.40;53.20;;;;;;5116876;28;20006;-76
2022/07/28 23:12:25;;;;;;;;;;;25.40;53.30;;;;;;5117146;28;19915;-76
2022/07/28 23:14:50;;;;;;;;;;;25.40;53.30;;;;;;5115712;28;19919;-76
2022/07/28 23:17:16;;;;;;;;;;;25.40;53.30;;;;;;5116751;28;19912;-76
2022/07/28 23:19:42;;;;;;;;;;;25.40;53.40;;;;;;5116668;28;20323;-76
2022/07/28 23:22:07;;;;;;;;;;;25.50;53.40;;;;;;5117023;28;20365;-76
2022/07/28 23:24:33;;;;;;;;;;;25.50;53.50;;;;;;5116280;28;19908;-76
2022/07/28 23:26:59;;;;;;;;;;;25.50;53.40;;;;;;5117173;28;19915;-76
2022/07/28 23:29:25;;;;;;;;;;;25.60;53.50;;;;;;5116792;28;19908;-76
2022/07/28 23:31:52;;;;;;;;;;;25.60;53.50;;;;;;5116517;28;19969;-77
2022/07/28 23:34:18;;;;;;;;;;;25.60;53.50;;;;;;5116324;28;19924;-77
2022/07/28 23:36:43;;;;;;;;;;;25.60;53.50;;;;;;5117077;28;19919;-77
2022/07/28 23:39:09;;;;;;;;;;;25.60;53.50;;;;;;5116912;28;19912;-76
2022/07/28 23:41:35;;;;;;;;;;;25.60;53.30;;;;;;5116336;28;19933;-77
2022/07/28 23:44:00;;;;;;;;;;;25.60;53.80;;;;;;5116585;28;19908;-77
2022/07/28 23:46:26;;;;;;;;;;;25.60;53.50;;;;;;5116050;28;20250;-79
2022/07/28 23:48:51;;;;;;;;;;;25.50;53.30;;;;;;5116333;28;20338;-77
2022/07/28 23:51:17;;;;;;;;;;;25.60;53.50;;;;;;5116472;28;19915;-76
2022/07/28 23:53:43;;;;;;;;;;;25.60;53.50;;;;;;5116314;28;20387;-76
2022/07/28 23:56:08;;;;;;;;;;;25.60;53.30;;;;;;5116204;28;19912;-76
2022/07/28 23:58:34;;;;;;;;;;;25.50;53.20;;;;;;5116161;28;19912;-76
